Chatham, Ohio
Current Conditions -  °F | °C
As of 9:51 PM on Saturday 22 Nov 2014 (Local Time) from KCLE Reporting Station
Overcast Overcast  
Wind Chill: 42°   Ceiling: 4600
Heat Index: 48°   Visibility: 10mi
Dew Point: 35°   Wind: 15mph
Humidity: 61%   Direction: 200°SSW
Pressure: 30.04"   Gusts: 23mph
Location:  41.1389°N, 81.8638°W
Report Text: KCLE 230251Z 20013G20KT 10SM BKN046 BKN060 OVC070 09/02 A3004 RMK AO2 SLP176 T00890017 56005 $
Loading
Personal Weather Stations






























Interactive Weather Map New forecast layout! Learn more

10-Day Weather Forecast

Advertisements
Track Severe Weather on mobile